createdAt,value
2023-03-26T00:00:26.717Z,0.70
2023-03-26T00:02:59.021Z,1.02
2023-03-26T00:05:32.389Z,1.00
2023-03-26T00:08:03.097Z,0.70
2023-03-26T00:10:33.490Z,1.10
2023-03-26T00:13:03.714Z,1.15
2023-03-26T00:15:35.228Z,1.10
2023-03-26T00:18:05.999Z,1.20
2023-03-26T00:20:38.861Z,1.08
2023-03-26T00:23:09.181Z,1.33
2023-03-26T00:25:43.618Z,1.08
2023-03-26T00:28:13.856Z,0.80
2023-03-26T00:30:44.966Z,0.95
2023-03-26T00:33:17.649Z,1.17
2023-03-26T00:35:55.449Z,1.15
2023-03-26T00:38:26.944Z,1.30
2023-03-26T00:40:59.506Z,1.25
2023-03-26T00:43:33.056Z,1.60
2023-03-26T00:46:03.433Z,1.85
2023-03-26T00:48:44.631Z,1.42
2023-03-26T00:51:20.862Z,1.10
2023-03-26T00:53:52.701Z,1.58
2023-03-26T00:56:23.108Z,1.70
2023-03-26T00:58:53.713Z,1.55
2023-03-26T01:01:29.138Z,1.20
2023-03-26T01:04:08.076Z,1.52
2023-03-26T01:06:45.449Z,1.40
2023-03-26T01:09:21.325Z,1.75
2023-03-26T01:11:58.785Z,2.08
2023-03-26T01:14:31.107Z,1.58
2023-03-26T01:17:06.225Z,1.73
2023-03-26T01:19:48.826Z,1.95
2023-03-26T01:22:25.015Z,1.58
2023-03-26T01:24:57.926Z,1.60
2023-03-26T01:27:42.446Z,1.60
2023-03-26T01:30:20.085Z,2.00
2023-03-26T01:32:58.109Z,1.67
2023-03-26T01:35:39.277Z,1.48
2023-03-26T01:38:25.830Z,1.60
2023-03-26T01:41:07.673Z,1.33
2023-03-26T01:43:47.119Z,1.70
2023-03-26T01:46:19.793Z,1.33
2023-03-26T01:48:51.194Z,1.10
2023-03-26T01:51:33.678Z,1.20
2023-03-26T01:54:14.784Z,1.20
2023-03-26T01:57:06.002Z,1.63
2023-03-26T02:00:00.706Z,1.90
2023-03-26T02:02:43.088Z,1.83
2023-03-26T02:05:23.215Z,1.55
2023-03-26T02:08:05.669Z,1.50
2023-03-26T02:10:39.805Z,1.40
2023-03-26T02:13:17.478Z,1.58
2023-03-26T02:15:58.768Z,1.20
2023-03-26T02:18:36.975Z,1.55
2023-03-26T02:21:10.254Z,1.13
2023-03-26T02:23:47.267Z,1.17
2023-03-26T02:26:20.155Z,1.38
2023-03-26T02:29:02.406Z,1.20
2023-03-26T02:31:33.080Z,1.58
2023-03-26T02:34:03.615Z,1.30
2023-03-26T02:36:37.212Z,1.10
2023-03-26T02:39:08.424Z,1.58
2023-03-26T02:41:41.860Z,1.08
2023-03-26T02:44:17.066Z,1.48
2023-03-26T02:47:02.287Z,1.10
2023-03-26T02:49:46.273Z,1.20
2023-03-26T02:52:23.129Z,1.50
2023-03-26T02:54:54.801Z,1.48
2023-03-26T02:57:27.743Z,1.13
2023-03-26T03:00:36.728Z,1.30
2023-03-26T03:03:28.184Z,1.50
2023-03-26T03:06:27.164Z,1.60
2023-03-26T03:09:02.947Z,1.50
2023-03-26T03:11:53.744Z,1.30
2023-03-26T03:14:24.350Z,1.33
2023-03-26T03:16:58.035Z,1.17
2023-03-26T03:19:28.498Z,1.30
2023-03-26T03:21:58.773Z,1.52
2023-03-26T03:24:28.989Z,1.60
2023-03-26T03:27:00.109Z,1.67
2023-03-26T03:29:53.779Z,1.55
2023-03-26T03:32:58.557Z,1.50
2023-03-26T03:38:02.711Z,1.92
2023-03-26T03:40:39.396Z,1.52
2023-03-26T03:43:10.078Z,1.70
2023-03-26T03:45:48.593Z,1.50
2023-03-26T03:48:48.484Z,1.77
2023-03-26T03:51:21.286Z,1.67
2023-03-26T03:54:03.559Z,2.30
2023-03-26T03:56:54.287Z,1.85
2023-03-26T03:59:48.005Z,1.77
2023-03-26T04:02:26.740Z,1.88
2023-03-26T04:05:05.125Z,1.77
2023-03-26T04:07:36.209Z,2.03
2023-03-26T04:10:26.390Z,1.80
2023-03-26T04:13:15.554Z,2.17
2023-03-26T04:16:12.507Z,2.00
2023-03-26T04:18:42.952Z,2.20
2023-03-26T04:21:20.281Z,1.98
2023-03-26T04:23:50.866Z,2.10
2023-03-26T04:26:44.116Z,1.80
2023-03-26T04:29:24.645Z,2.17
2023-03-26T04:31:58.872Z,2.10
2023-03-26T04:34:31.307Z,2.13
2023-03-26T04:37:34.645Z,2.50
2023-03-26T04:40:30.804Z,2.70
2023-03-26T04:43:06.627Z,2.55
2023-03-26T04:45:56.121Z,2.40
2023-03-26T04:48:30.608Z,2.40
2023-03-26T04:51:01.891Z,3.08
2023-03-26T04:53:35.185Z,2.90
2023-03-26T04:56:37.770Z,2.90
2023-03-26T04:59:37.275Z,2.95
2023-03-26T05:02:11.573Z,3.15
2023-03-26T05:04:50.901Z,3.03
2023-03-26T05:07:24.338Z,3.35
2023-03-26T05:10:03.820Z,2.85
2023-03-26T05:12:50.234Z,3.58
2023-03-26T05:15:33.311Z,3.95
2023-03-26T05:18:26.307Z,4.30
2023-03-26T05:20:57.714Z,4.70
2023-03-26T05:23:28.817Z,5.00
2023-03-26T05:26:19.290Z,5.57
2023-03-26T05:28:49.617Z,5.90
2023-03-26T05:31:45.841Z,6.32
2023-03-26T05:34:16.116Z,5.63
2023-03-26T05:36:46.293Z,7.07
2023-03-26T05:39:35.820Z,6.80
2023-03-26T05:42:29.293Z,6.35
2023-03-26T05:45:16.767Z,7.00
2023-03-26T05:47:48.110Z,6.68
2023-03-26T05:50:18.735Z,7.43
2023-03-26T05:52:49.202Z,8.18
2023-03-26T05:55:37.867Z,7.60
2023-03-26T05:58:29.560Z,7.90
2023-03-26T06:01:19.985Z,7.83
2023-03-26T06:04:16.257Z,7.25
2023-03-26T06:07:10.245Z,7.53
2023-03-26T06:09:41.854Z,7.72
2023-03-26T06:12:13.988Z,8.00
2023-03-26T06:14:47.473Z,7.97
2023-03-26T06:17:23.500Z,7.47
2023-03-26T06:20:15.014Z,7.05
2023-03-26T06:22:48.975Z,8.68
2023-03-26T06:25:24.237Z,7.47
2023-03-26T06:28:03.428Z,7.82
2023-03-26T06:30:55.604Z,7.72
2023-03-26T06:33:35.094Z,8.82
2023-03-26T06:36:05.670Z,7.93
2023-03-26T06:38:36.060Z,7.80
2023-03-26T06:41:09.981Z,7.18
2023-03-26T06:43:53.194Z,7.75
2023-03-26T06:46:44.732Z,6.97
2023-03-26T06:49:34.638Z,5.80
2023-03-26T06:52:33.751Z,6.55
2023-03-26T06:55:26.206Z,7.05
2023-03-26T06:58:09.879Z,5.90
2023-03-26T07:00:59.793Z,6.18
2023-03-26T07:03:51.971Z,5.53
2023-03-26T07:06:40.730Z,5.57
2023-03-26T07:09:30.601Z,5.10
2023-03-26T07:12:03.293Z,5.65
2023-03-26T07:14:53.845Z,5.10
2023-03-26T07:17:30.247Z,5.20
2023-03-26T07:20:11.886Z,5.35
2023-03-26T07:22:43.304Z,5.43
2023-03-26T07:25:20.040Z,5.10
2023-03-26T07:28:10.326Z,6.90
2023-03-26T07:31:27.840Z,5.85
2023-03-26T07:34:44.939Z,5.13
2023-03-26T07:37:48.222Z,4.38
2023-03-26T07:40:55.286Z,4.72
2023-03-26T07:43:57.623Z,4.22
2023-03-26T07:46:42.926Z,4.55
2023-03-26T07:49:37.836Z,4.63
2023-03-26T07:52:17.516Z,3.88
2023-03-26T07:55:17.024Z,4.40
2023-03-26T07:58:19.012Z,5.43
2023-03-26T08:01:13.091Z,4.63
2023-03-26T08:03:56.454Z,4.53
2023-03-26T08:07:08.411Z,4.03
2023-03-26T08:10:13.246Z,3.80
2023-03-26T08:13:10.523Z,4.28
2023-03-26T08:15:50.156Z,4.15
2023-03-26T08:18:30.715Z,3.20
2023-03-26T08:21:06.508Z,3.40
2023-03-26T08:23:50.955Z,3.85
2023-03-26T08:26:30.886Z,3.08
2023-03-26T08:29:13.435Z,3.53
2023-03-26T08:31:47.243Z,2.55
2023-03-26T08:34:17.493Z,3.22
2023-03-26T08:36:47.905Z,3.15
2023-03-26T08:39:18.486Z,2.53
2023-03-26T08:42:16.673Z,2.47
2023-03-26T08:45:15.752Z,3.03
2023-03-26T08:48:15.887Z,2.67
2023-03-26T08:51:14.038Z,2.60
2023-03-26T08:54:13.851Z,3.08
2023-03-26T08:56:57.331Z,3.00
2023-03-26T09:00:11.453Z,2.30
2023-03-26T09:03:14.105Z,3.03
2023-03-26T09:06:24.817Z,2.67
2023-03-26T09:09:37.348Z,3.30
2023-03-26T09:12:42.094Z,2.25
2023-03-26T09:15:48.722Z,2.20
2023-03-26T09:18:58.114Z,2.35
2023-03-26T09:22:00.049Z,2.80
2023-03-26T09:25:06.085Z,2.50
2023-03-26T09:27:42.971Z,2.47
2023-03-26T09:30:54.048Z,2.42
2023-03-26T09:33:52.420Z,2.10
2023-03-26T09:36:30.772Z,1.80
2023-03-26T09:39:12.916Z,2.00
2023-03-26T09:41:46.716Z,1.58
2023-03-26T09:44:35.215Z,1.67
2023-03-26T09:47:39.398Z,2.15
2023-03-26T09:50:38.324Z,1.80
2023-03-26T09:53:25.567Z,1.73
2023-03-26T09:56:19.258Z,1.92
2023-03-26T09:59:08.427Z,2.30
2023-03-26T10:01:47.278Z,2.10
2023-03-26T10:04:44.726Z,1.98
2023-03-26T10:07:31.308Z,1.85
2023-03-26T10:10:07.946Z,2.50
2023-03-26T10:12:46.277Z,2.30
2023-03-26T10:15:35.192Z,2.60
2023-03-26T10:18:28.259Z,2.00
2023-03-26T10:21:05.261Z,2.03
2023-03-26T10:23:51.241Z,1.55
2023-03-26T10:27:09.253Z,2.00
2023-03-26T10:30:08.158Z,2.33
2023-03-26T10:32:46.104Z,2.03
2023-03-26T10:35:28.795Z,1.73
2023-03-26T10:38:11.792Z,2.35
2023-03-26T10:40:50.877Z,2.00
2023-03-26T10:44:01.154Z,1.92
2023-03-26T10:49:44.269Z,1.95
2023-03-26T10:52:18.978Z,1.80
2023-03-26T10:54:57.992Z,0.80
2023-03-26T10:57:38.898Z,1.15
2023-03-26T11:00:18.513Z,0.70
2023-03-26T11:03:15.228Z,1.00
2023-03-26T11:05:52.673Z,1.15
2023-03-26T11:08:31.829Z,0.90
2023-03-26T11:11:11.794Z,0.82
2023-03-26T11:13:54.101Z,1.13
2023-03-26T11:16:33.624Z,0.82
2023-03-26T11:19:14.793Z,0.65
2023-03-26T11:21:53.545Z,1.33
2023-03-26T11:25:00.848Z,1.48
2023-03-26T11:27:41.462Z,0.47
2023-03-26T11:30:22.535Z,0.73
2023-03-26T11:32:57.021Z,0.63
2023-03-26T11:35:40.969Z,0.98
2023-03-26T11:38:20.359Z,0.88
2023-03-26T11:40:54.367Z,0.63
2023-03-26T11:43:43.403Z,0.85
2023-03-26T11:46:17.611Z,0.40
2023-03-26T11:48:51.352Z,0.85
2023-03-26T11:51:30.094Z,0.80
2023-03-26T11:54:00.580Z,0.70
2023-03-26T11:56:35.268Z,0.52
2023-03-26T11:59:09.393Z,1.10
2023-03-26T12:01:51.425Z,0.55
2023-03-26T12:04:24.062Z,0.80
2023-03-26T12:06:59.959Z,0.53
2023-03-26T12:09:30.266Z,0.63
2023-03-26T12:12:07.308Z,0.60
2023-03-26T12:14:38.701Z,0.50
2023-03-26T12:17:11.813Z,0.90
2023-03-26T12:19:44.377Z,0.55
2023-03-26T12:22:36.446Z,0.73
2023-03-26T12:25:18.721Z,0.90
2023-03-26T12:27:53.076Z,0.73
2023-03-26T12:30:25.879Z,0.55
2023-03-26T12:33:01.177Z,0.68
2023-03-26T12:35:34.531Z,0.60
2023-03-26T12:38:29.252Z,0.80
2023-03-26T12:43:19.841Z,0.90
2023-03-26T12:44:49.992Z,0.80
2023-03-26T12:47:59.128Z,0.93
2023-03-26T12:50:17.442Z,0.82
2023-03-26T12:53:08.144Z,0.50
2023-03-26T12:56:01.909Z,0.50
2023-03-26T12:58:51.618Z,0.70
2023-03-26T13:01:33.437Z,0.60
2023-03-26T13:04:27.661Z,0.73
2023-03-26T13:07:04.698Z,1.20
2023-03-26T13:10:13.889Z,0.70
2023-03-26T13:12:57.190Z,0.47
2023-03-26T13:15:34.516Z,0.50
2023-03-26T13:18:18.397Z,1.10
2023-03-26T13:20:54.858Z,0.52
2023-03-26T13:23:34.466Z,0.52
2023-03-26T13:26:12.646Z,0.80
2023-03-26T13:28:53.056Z,0.52
2023-03-26T13:31:30.946Z,0.47
2023-03-26T13:34:07.205Z,0.60
2023-03-26T13:36:48.552Z,0.90
2023-03-26T13:39:30.866Z,0.50
2023-03-26T13:42:41.967Z,0.60
2023-03-26T13:45:30.225Z,0.93
2023-03-26T13:48:04.077Z,0.30
2023-03-26T13:50:40.537Z,0.52
2023-03-26T13:53:21.451Z,0.32
2023-03-26T13:56:02.164Z,0.50
2023-03-26T13:58:40.878Z,0.57
2023-03-26T14:01:20.332Z,0.60
2023-03-26T14:03:57.226Z,0.60
2023-03-26T14:06:42.523Z,0.60
2023-03-26T14:09:18.704Z,0.57
2023-03-26T14:12:21.455Z,0.50
2023-03-26T14:14:58.396Z,0.90
2023-03-26T14:17:38.702Z,0.88
2023-03-26T14:20:47.865Z,0.40
2023-03-26T14:23:42.988Z,0.93
2023-03-26T14:26:27.240Z,0.50
2023-03-26T14:29:38.170Z,0.85
2023-03-26T14:32:35.347Z,0.70
2023-03-26T14:35:38.057Z,1.00
2023-03-26T14:38:46.711Z,0.80
2023-03-26T14:41:26.206Z,0.68
2023-03-26T14:44:19.770Z,0.70
2023-03-26T14:47:16.878Z,0.77
2023-03-26T14:50:20.539Z,0.60
2023-03-26T14:53:01.191Z,1.05
2023-03-26T14:56:15.448Z,0.52
2023-03-26T14:59:15.023Z,0.80
2023-03-26T15:02:23.327Z,0.70
2023-03-26T15:05:20.660Z,0.85
2023-03-26T15:08:37.237Z,0.90
2023-03-26T15:11:27.848Z,0.65
2023-03-26T15:14:20.725Z,0.98
2023-03-26T15:17:29.581Z,1.00
2023-03-26T15:20:33.150Z,1.20
2023-03-26T15:23:33.803Z,0.97
2023-03-26T15:26:38.550Z,0.98
2023-03-26T15:29:50.858Z,0.80
2023-03-26T15:32:53.071Z,1.30
2023-03-26T15:35:57.031Z,1.17
2023-03-26T15:41:34.611Z,0.80
2023-03-26T15:44:25.510Z,1.00
2023-03-26T15:47:19.797Z,0.80
2023-03-26T15:52:31.575Z,0.55
2023-03-26T15:55:08.729Z,0.77
2023-03-26T15:57:48.040Z,0.68
2023-03-26T16:00:29.459Z,0.88
2023-03-26T16:03:23.879Z,1.17
2023-03-26T16:06:14.343Z,1.08
2023-03-26T16:08:53.330Z,1.30
2023-03-26T16:11:48.752Z,1.10
2023-03-26T16:14:25.970Z,0.90
2023-03-26T16:16:59.446Z,1.30
2023-03-26T16:19:49.693Z,1.42
2023-03-26T16:22:42.411Z,1.50
2023-03-26T16:25:29.372Z,1.40
2023-03-26T16:28:22.670Z,1.23
2023-03-26T16:31:37.321Z,1.00
2023-03-26T16:34:42.290Z,1.10
2023-03-26T16:37:39.851Z,1.20
2023-03-26T16:40:35.276Z,1.65
2023-03-26T16:43:30.002Z,1.45
2023-03-26T16:46:09.587Z,2.03
2023-03-26T16:48:49.187Z,1.40
2023-03-26T16:51:30.841Z,1.42
2023-03-26T16:54:09.772Z,1.45
2023-03-26T16:56:51.843Z,1.48
2023-03-26T17:00:05.833Z,1.40
2023-03-26T17:02:48.309Z,1.45
2023-03-26T17:05:24.380Z,2.00
2023-03-26T17:08:05.592Z,1.35
2023-03-26T17:10:44.616Z,1.45
2023-03-26T17:13:23.923Z,1.67
2023-03-26T17:16:06.911Z,1.95
2023-03-26T17:18:46.443Z,1.57
2023-03-26T17:21:21.372Z,1.67
2023-03-26T17:24:15.300Z,1.42
2023-03-26T17:27:02.166Z,1.95
2023-03-26T17:29:53.337Z,1.85
2023-03-26T17:32:24.563Z,1.73
2023-03-26T17:35:03.893Z,1.52
2023-03-26T17:37:48.287Z,1.33
2023-03-26T17:40:47.832Z,1.55
2023-03-26T17:43:37.327Z,2.10
2023-03-26T17:46:16.301Z,1.70
2023-03-26T17:48:49.666Z,1.52
2023-03-26T17:51:35.099Z,1.83
2023-03-26T17:54:06.579Z,2.28
2023-03-26T17:56:40.823Z,1.65
2023-03-26T17:59:19.096Z,2.28
2023-03-26T18:01:50.754Z,2.80
2023-03-26T18:04:24.892Z,2.33
2023-03-26T18:07:18.629Z,2.22
2023-03-26T18:10:02.531Z,2.75
2023-03-26T18:13:02.765Z,2.47
2023-03-26T18:15:48.302Z,3.08
2023-03-26T18:18:22.772Z,3.28
2023-03-26T18:20:55.521Z,3.17
2023-03-26T18:23:34.017Z,2.38
2023-03-26T18:26:15.224Z,3.13
2023-03-26T18:28:53.353Z,3.08
2023-03-26T18:31:28.856Z,3.00
2023-03-26T18:34:18.773Z,2.90
2023-03-26T18:36:50.735Z,2.55
2023-03-26T18:39:22.073Z,2.42
2023-03-26T18:41:52.608Z,3.20
2023-03-26T18:44:28.949Z,2.83
2023-03-26T18:47:00.177Z,2.85
2023-03-26T18:49:31.917Z,2.60
2023-03-26T18:52:02.173Z,2.80
2023-03-26T18:54:38.745Z,3.35
2023-03-26T18:57:14.986Z,3.45
2023-03-26T18:59:53.160Z,3.10
2023-03-26T19:02:25.273Z,3.45
2023-03-26T19:04:56.992Z,3.13
2023-03-26T19:07:31.226Z,2.88
2023-03-26T19:10:04.116Z,2.90
2023-03-26T19:12:37.554Z,3.08
2023-03-26T19:15:15.146Z,3.78
2023-03-26T19:17:53.524Z,3.60
2023-03-26T19:20:27.665Z,3.55
2023-03-26T19:22:59.373Z,3.47
2023-03-26T19:25:34.300Z,2.83
2023-03-26T19:28:04.566Z,4.07
2023-03-26T19:30:44.261Z,3.78
2023-03-26T19:33:19.596Z,3.05
2023-03-26T19:35:55.041Z,3.92
2023-03-26T19:38:28.103Z,3.30
2023-03-26T19:41:00.070Z,3.65
2023-03-26T19:43:30.708Z,3.80
2023-03-26T19:46:04.060Z,3.55
2023-03-26T19:48:46.538Z,3.17
2023-03-26T19:51:22.925Z,3.33
2023-03-26T19:53:58.455Z,3.10
2023-03-26T19:56:29.069Z,3.30
2023-03-26T19:59:00.020Z,3.25
2023-03-26T20:01:34.079Z,3.00
2023-03-26T20:04:07.634Z,2.90
2023-03-26T20:06:43.926Z,2.75
2023-03-26T20:09:16.591Z,2.63
2023-03-26T20:11:47.518Z,2.92
2023-03-26T20:14:24.980Z,3.17
2023-03-26T20:16:58.424Z,2.10
2023-03-26T20:19:29.845Z,2.35
2023-03-26T20:22:00.781Z,2.38
2023-03-26T20:24:33.851Z,1.73
2023-03-26T20:27:04.214Z,2.03
2023-03-26T20:29:34.648Z,2.40
2023-03-26T20:32:09.773Z,2.67
2023-03-26T20:34:40.308Z,2.33
2023-03-26T20:37:10.839Z,2.40
2023-03-26T20:39:41.863Z,2.75
2023-03-26T20:42:16.177Z,2.53
2023-03-26T20:44:47.605Z,2.95
2023-03-26T20:47:20.578Z,2.10
2023-03-26T20:49:52.883Z,2.83
2023-03-26T20:52:25.859Z,3.28
2023-03-26T20:54:56.292Z,3.20
2023-03-26T20:57:26.959Z,3.50
2023-03-26T20:59:57.609Z,3.42
2023-03-26T21:02:30.987Z,3.35
2023-03-26T21:05:01.905Z,3.17
2023-03-26T21:07:32.527Z,3.53
2023-03-26T21:10:03.769Z,2.80
2023-03-26T21:12:38.448Z,2.85
2023-03-26T21:15:22.380Z,2.65
2023-03-26T21:17:58.344Z,3.17
2023-03-26T21:20:32.965Z,2.80
2023-03-26T21:23:13.455Z,3.03
2023-03-26T21:25:53.284Z,2.78
2023-03-26T21:28:42.017Z,2.95
2023-03-26T21:31:18.757Z,2.92
2023-03-26T21:33:55.425Z,2.78
2023-03-26T21:36:27.401Z,2.70
2023-03-26T21:38:58.899Z,2.78
2023-03-26T21:41:41.456Z,2.42
2023-03-26T21:44:12.117Z,3.13
2023-03-26T21:46:45.725Z,3.03
2023-03-26T21:49:21.104Z,3.78
2023-03-26T21:51:52.347Z,2.85
2023-03-26T21:54:28.203Z,3.08
2023-03-26T21:57:13.730Z,3.53
2023-03-26T21:59:53.060Z,3.10
2023-03-26T22:02:29.356Z,3.15
2023-03-26T22:05:11.583Z,3.47
2023-03-26T22:07:56.781Z,2.88
2023-03-26T22:10:27.834Z,3.10
2023-03-26T22:12:58.524Z,3.30
2023-03-26T22:15:31.081Z,3.17
2023-03-26T22:18:04.052Z,3.00
2023-03-26T22:20:38.146Z,3.13
2023-03-26T22:23:09.470Z,3.30
2023-03-26T22:25:40.240Z,3.63
2023-03-26T22:28:10.745Z,3.15
2023-03-26T22:30:42.407Z,3.50
2023-03-26T22:33:13.603Z,3.85
2023-03-26T22:35:47.739Z,3.60
2023-03-26T22:38:18.429Z,3.70
2023-03-26T22:40:48.819Z,4.43
2023-03-26T22:43:19.070Z,4.00
2023-03-26T22:45:53.861Z,3.40
2023-03-26T22:48:24.540Z,3.25
2023-03-26T22:51:05.796Z,4.35
2023-03-26T22:53:36.348Z,3.95
2023-03-26T22:56:07.464Z,4.47
2023-03-26T22:58:38.215Z,5.18
2023-03-26T23:01:12.194Z,3.55
2023-03-26T23:03:43.256Z,4.20
2023-03-26T23:06:16.628Z,3.22
2023-03-26T23:08:47.383Z,3.75
2023-03-26T23:11:19.438Z,3.50
2023-03-26T23:13:50.421Z,4.13
2023-03-26T23:16:21.787Z,3.45
2023-03-26T23:18:51.996Z,3.55
2023-03-26T23:21:25.811Z,2.97
2023-03-26T23:26:43.930Z,2.60
2023-03-26T23:29:20.230Z,2.65
2023-03-26T23:31:53.101Z,2.45
2023-03-26T23:34:23.636Z,2.63
2023-03-26T23:36:58.273Z,3.08
2023-03-26T23:39:28.860Z,2.50
2023-03-26T23:41:59.071Z,2.45
2023-03-26T23:44:29.808Z,2.38
2023-03-26T23:47:00.844Z,2.88
2023-03-26T23:49:32.107Z,2.70
2023-03-26T23:52:05.552Z,2.53
2023-03-26T23:54:37.135Z,2.05
2023-03-26T23:57:11.529Z,2.97
2023-03-26T23:59:42.120Z,2.92
